Time;durP1;ratioP1;P1;durP2;ratioP2;P2;SDS_P1;SDS_P2;PMS_P1;PMS_P2;Temp;Humidity;BMP_temperature;BMP_pressure;BME280_temperature;BME280_humidity;BME280_pressure;Samples;Min_cycle;Max_cycle;Signal;HPM_P1;HPM_P2
2022/10/18 00:00:17;;;;;;;13.98;8.80;;;;;;;7.57;83.04;100105.97;6193227;22;20023;-72
2022/10/18 00:02:42;;;;;;;12.52;7.65;;;;;;;7.56;82.70;100097.13;6229804;22;20016;-72
2022/10/18 00:05:07;;;;;;;14.93;9.25;;;;;;;7.50;82.65;100100.13;6231104;22;20019;-78
2022/10/18 00:07:32;;;;;;;14.00;9.00;;;;;;;7.50;83.50;100105.44;6205459;22;20106;-78
2022/10/18 00:09:56;;;;;;;13.70;8.70;;;;;;;7.45;83.26;100093.34;6230926;22;20184;-76
2022/10/18 00:12:21;;;;;;;13.93;9.63;;;;;;;7.43;83.51;100077.53;6214976;22;20098;-78
2022/10/18 00:14:49;;;;;;;18.35;8.85;;;;;;;7.43;83.72;100096.09;6229518;22;20019;-69
2022/10/18 00:17:14;;;;;;;15.65;10.48;;;;;;;7.38;83.81;100092.78;6229825;22;20426;-74
2022/10/18 00:19:38;;;;;;;14.25;9.00;;;;;;;7.47;83.59;100080.84;6202885;22;20039;-71
2022/10/18 00:22:03;;;;;;;13.02;8.55;;;;;;;7.50;83.29;100084.22;6229849;22;20077;-68
2022/10/18 00:24:27;;;;;;;12.40;8.10;;;;;;;7.52;83.51;100070.88;6229889;22;20024;-71
2022/10/18 00:26:52;;;;;;;16.80;9.00;;;;;;;7.58;83.51;100075.84;6229158;22;20026;-69
2022/10/18 00:29:17;;;;;;;13.15;7.88;;;;;;;7.58;82.89;100073.19;6227597;22;20011;-72
2022/10/18 00:31:43;;;;;;;15.68;8.82;;;;;;;7.62;82.98;100069.44;6227948;22;20149;-74
2022/10/18 00:34:11;;;;;;;13.15;7.93;;;;;;;7.72;82.76;100060.06;6229534;22;20020;-73
2022/10/18 00:36:36;;;;;;;13.00;8.35;;;;;;;7.73;81.73;100053.81;6230912;22;20043;-75
2022/10/18 00:39:03;;;;;;;11.68;8.07;;;;;;;7.78;82.25;100057.09;6230516;22;20024;-78
2022/10/18 00:41:31;;;;;;;11.50;8.18;;;;;;;7.83;81.51;100057.69;6202715;22;20051;-75
2022/10/18 00:44:11;;;;;;;13.07;7.88;;;;;;;7.95;81.26;100061.47;6231517;22;20023;-81
2022/10/18 00:46:41;;;;;;;14.80;7.78;;;;;;;7.95;80.97;100056.16;6205202;22;20094;-76
2022/10/18 00:49:16;;;;;;;11.63;7.70;;;;;;;7.93;81.00;100047.44;6229866;22;20012;-78
2022/10/18 00:51:47;;;;;;;16.52;8.65;;;;;;;7.94;80.83;100052.66;6205461;22;20018;-77
2022/10/18 00:54:15;;;;;;;11.43;7.53;;;;;;;7.97;80.63;100041.03;6229939;22;20023;-75
2022/10/18 00:56:40;;;;;;;13.77;7.85;;;;;;;7.99;80.46;100039.16;6230495;22;20328;-79
2022/10/18 00:59:06;;;;;;;14.70;8.57;;;;;;;7.96;80.12;100032.19;6204293;22;20091;-76
2022/10/18 01:01:30;;;;;;;12.45;8.63;;;;;;;7.98;80.10;100029.47;6229985;22;20426;-70
2022/10/18 01:03:56;;;;;;;14.77;9.18;;;;;;;7.99;80.03;100025.88;6233691;22;20444;-77
2022/10/18 01:06:21;;;;;;;12.77;8.65;;;;;;;7.95;79.94;100034.94;6239749;22;20343;-78
2022/10/18 01:08:54;;;;;;;11.85;6.68;;;;;;;7.96;79.83;100024.22;6183066;22;20359;-78
2022/10/18 01:11:46;;;;;;;12.43;8.00;;;;;;;8.02;79.44;100025.69;6231493;22;20030;-79
2022/10/18 01:14:32;;;;;;;11.80;7.07;;;;;;;8.01;79.13;100027.47;6232128;22;20094;-77
2022/10/18 01:17:07;;;;;;;14.27;8.15;;;;;;;8.02;79.02;100015.91;6216554;22;20011;-75
2022/10/18 01:20:14;;;;;;;12.77;7.65;;;;;;;8.05;79.33;100014.91;6245818;22;20019;-78
2022/10/18 01:22:47;;;;;;;11.27;6.20;;;;;;;8.06;79.13;100013.97;6221326;22;20054;-73
2022/10/18 01:25:47;;;;;;;10.07;6.85;;;;;;;8.06;78.89;100021.06;6241846;22;20008;-73
2022/10/18 01:28:26;;;;;;;12.40;7.32;;;;;;;8.02;78.64;100025.69;6114704;23;20722;-72
2022/10/18 01:30:56;;;;;;;10.90;7.07;;;;;;;7.96;78.46;100026.03;6116086;23;20021;-73
2022/10/18 01:33:39;;;;;;;11.93;7.88;;;;;;;7.98;78.77;100018.84;6098725;23;20068;-73
2022/10/18 01:36:07;;;;;;;11.25;7.50;;;;;;;7.87;78.67;100007.97;6089800;23;20017;-73
2022/10/18 01:38:34;;;;;;;11.75;7.30;;;;;;;7.85;79.07;100010.69;6108912;23;20100;-73
2022/10/18 01:41:01;;;;;;;11.60;7.40;;;;;;;7.86;78.96;100016.84;6108326;23;20029;-74
2022/10/18 01:43:28;;;;;;;9.40;6.60;;;;;;;7.90;79.07;100010.44;6059971;23;20017;-72
2022/10/18 01:45:54;;;;;;;8.63;6.85;;;;;;;7.95;78.74;100008.38;6108786;23;20076;-74
2022/10/18 01:48:19;;;;;;;9.02;6.75;;;;;;;7.96;78.44;100005.66;6059148;23;20040;-72
2022/10/18 01:50:44;;;;;;;12.05;7.03;;;;;;;7.96;78.33;99988.88;6108052;23;20013;-75
2022/10/18 01:53:23;;;;;;;11.93;7.55;;;;;;;8.07;78.35;99991.78;6108285;23;20084;-70
2022/10/18 01:55:57;;;;;;;10.63;7.35;;;;;;;8.08;78.41;99990.84;6083284;23;20025;-74
2022/10/18 01:58:34;;;;;;;12.52;8.10;;;;;;;8.03;78.54;99987.56;6108302;23;20028;-76
2022/10/18 02:01:07;;;;;;;11.85;8.25;;;;;;;8.01;78.10;99992.97;6108294;23;20022;-68
2022/10/18 02:03:36;;;;;;;12.00;7.97;;;;;;;8.03;78.36;99995.53;6159460;22;20308;-76
2022/10/18 02:06:22;;;;;;;11.85;7.25;;;;;;;8.08;78.33;99977.56;6242829;22;20050;-78
2022/10/18 02:08:53;;;;;;;13.35;7.65;;;;;;;8.05;78.23;99980.38;6231471;22;20015;-72
2022/10/18 02:11:18;;;;;;;18.38;8.02;;;;;;;8.02;78.01;99972.56;6231292;22;20090;-75
2022/10/18 02:13:48;;;;;;;13.18;7.07;;;;;;;8.03;77.90;99969.84;6231443;22;20026;-74
2022/10/18 02:16:17;;;;;;;11.20;7.28;;;;;;;7.98;77.77;99971.06;6230166;22;20019;-78
2022/10/18 02:18:56;;;;;;;11.35;7.07;;;;;;;7.96;77.81;99968.47;6231262;22;20030;-75
2022/10/18 02:21:22;;;;;;;15.70;7.35;;;;;;;7.92;77.99;99966.06;6203528;22;20011;-71
2022/10/18 02:23:47;;;;;;;13.55;7.90;;;;;;;7.91;78.05;99980.28;6229297;22;20478;-72
2022/10/18 02:26:15;;;;;;;12.10;7.95;;;;;;;7.97;77.86;99974.66;6215203;22;20102;-70
2022/10/18 02:28:41;;;;;;;15.20;7.47;;;;;;;7.96;77.60;99964.97;6231407;22;20015;-75
2022/10/18 02:31:09;;;;;;;14.70;8.65;;;;;;;7.95;77.62;99960.59;6228640;22;20111;-75
2022/10/18 02:33:36;;;;;;;10.45;7.38;;;;;;;8.00;77.54;99943.50;6230537;22;20019;-75
2022/10/18 02:36:24;;;;;;;11.52;7.22;;;;;;;7.97;77.35;99948.97;6202302;22;20474;-72
2022/10/18 02:38:55;;;;;;;13.05;6.97;;;;;;;8.00;77.77;99951.44;6136967;23;20536;-73
2022/10/18 02:41:26;;;;;;;10.07;7.00;;;;;;;8.03;77.39;99950.41;6138128;23;20049;-72
2022/10/18 02:43:51;;;;;;;13.32;8.05;;;;;;;7.99;77.18;99940.91;6139154;23;20064;-73
2022/10/18 02:46:16;;;;;;;12.98;7.53;;;;;;;7.99;77.02;99951.53;6139612;23;20021;-72
2022/10/18 02:48:40;;;;;;;12.95;7.63;;;;;;;7.93;77.20;99947.41;6139602;23;20075;-74
2022/10/18 02:51:05;;;;;;;9.35;7.22;;;;;;;7.93;77.30;99942.09;6118693;23;20013;-70
2022/10/18 02:53:29;;;;;;;12.13;7.32;;;;;;;7.93;77.20;99933.28;6122972;23;20108;-74
2022/10/18 02:55:54;;;;;;;10.38;6.82;;;;;;;7.90;77.26;99925.50;6098743;23;20044;-74
2022/10/18 02:58:19;;;;;;;15.02;7.85;;;;;;;7.93;77.52;99917.34;6122569;23;20020;-71
2022/10/18 03:00:43;;;;;;;22.00;9.45;;;;;;;7.97;77.05;99913.59;6138912;23;20043;-70
2022/10/18 03:03:08;;;;;;;12.20;7.82;;;;;;;7.94;77.18;99919.06;6136779;23;20099;-71
2022/10/18 03:05:32;;;;;;;14.95;8.15;;;;;;;7.97;77.50;99927.72;6137116;23;20457;-66
2022/10/18 03:07:57;;;;;;;13.13;7.95;;;;;;;7.98;77.09;99915.31;6136700;23;20075;-68
2022/10/18 03:10:22;;;;;;;10.23;7.30;;;;;;;7.95;76.91;99910.16;6112321;23;20017;-66
2022/10/18 03:12:47;;;;;;;13.45;8.13;;;;;;;7.96;76.87;99902.13;6136660;23;20016;-67
2022/10/18 03:15:11;;;;;;;12.32;6.40;;;;;;;7.96;77.14;99893.28;6155357;22;20038;-67
2022/10/18 03:17:36;;;;;;;11.05;6.88;;;;;;;7.95;76.77;99892.44;6239251;22;20022;-67
2022/10/18 03:20:00;;;;;;;15.85;7.00;;;;;;;7.96;77.10;99880.88;6232590;22;20019;-68
2022/10/18 03:22:26;;;;;;;10.50;7.50;;;;;;;7.94;76.94;99873.94;6228572;22;20023;-70
2022/10/18 03:24:51;;;;;;;9.98;7.07;;;;;;;7.97;77.28;99879.06;6226671;22;20430;-69
2022/10/18 03:27:16;;;;;;;11.57;6.97;;;;;;;7.96;77.17;99880.03;6228599;22;20030;-68
2022/10/18 03:29:41;;;;;;;9.90;7.30;;;;;;;7.94;77.00;99873.94;6201546;22;20012;-68
2022/10/18 03:32:05;;;;;;;12.52;6.50;;;;;;;7.92;77.08;99873.16;6227099;22;20023;-70
2022/10/18 03:34:30;;;;;;;11.00;6.93;;;;;;;7.91;77.48;99868.78;6230248;22;20023;-69
2022/10/18 03:36:56;;;;;;;12.60;6.97;;;;;;;7.89;77.43;99849.47;6228237;22;20015;-70
2022/10/18 03:39:21;;;;;;;12.70;7.65;;;;;;;7.86;77.30;99860.25;6166476;23;20016;-70
2022/10/18 03:41:45;;;;;;;10.73;7.10;;;;;;;7.83;77.34;99852.47;6141623;23;20020;-69
2022/10/18 03:44:10;;;;;;;10.55;7.10;;;;;;;7.78;77.55;99831.50;6166772;23;20016;-69
2022/10/18 03:46:35;;;;;;;11.52;7.50;;;;;;;7.75;77.63;99838.78;6166580;23;20016;-69
2022/10/18 03:49:00;;;;;;;12.10;7.10;;;;;;;7.70;77.49;99824.91;6141365;23;20478;-70
2022/10/18 03:51:25;;;;;;;10.07;6.70;;;;;;;7.72;77.51;99833.63;6116464;23;20539;-69
2022/10/18 03:53:49;;;;;;;13.85;7.85;;;;;;;7.78;77.57;99820.88;6140975;23;20016;-67
2022/10/18 03:56:14;;;;;;;12.23;7.00;;;;;;;7.77;76.93;99823.63;6141320;23;20016;-66
2022/10/18 03:58:39;;;;;;;11.73;6.82;;;;;;;7.70;77.39;99816.94;6166046;23;20074;-69
2022/10/18 04:01:03;;;;;;;14.90;8.35;;;;;;;7.63;77.44;99811.13;6166124;23;20614;-69
2022/10/18 04:03:28;;;;;;;12.80;6.45;;;;;;;7.60;77.50;99821.91;6116186;23;20036;-68
2022/10/18 04:05:52;;;;;;;16.15;8.23;;;;;;;7.58;77.77;99823.78;6116140;23;20470;-68
2022/10/18 04:08:17;;;;;;;15.95;7.90;;;;;;;7.64;77.09;99821.66;6166075;23;20023;-70
2022/10/18 04:10:44;;;;;;;14.80;8.27;;;;;;;7.56;77.68;99815.91;6210426;22;20073;-69
2022/10/18 04:13:08;;;;;;;13.15;8.07;;;;;;;7.56;77.24;99818.56;6229960;22;20030;-68
2022/10/18 04:15:33;;;;;;;12.75;8.13;;;;;;;7.53;77.75;99805.50;6228029;22;20043;-69
2022/10/18 04:17:58;;;;;;;13.55;7.72;;;;;;;7.54;78.20;99806.34;6228505;22;20023;-69
2022/10/18 04:20:24;;;;;;;14.52;8.45;;;;;;;7.51;78.57;99801.22;6227317;22;20064;-69
2022/10/18 04:22:48;;;;;;;18.67;8.43;;;;;;;7.53;78.48;99802.00;6228258;22;20031;-69
2022/10/18 04:25:13;;;;;;;11.65;7.25;;;;;;;7.55;77.68;99793.00;6228846;22;20015;-69
2022/10/18 04:27:38;;;;;;;13.00;7.75;;;;;;;7.56;77.82;99780.59;6228534;22;20024;-70
2022/10/18 04:30:03;;;;;;;15.98;8.43;;;;;;;7.54;78.44;99796.59;6230772;22;20067;-68
2022/10/18 04:32:28;;;;;;;12.13;8.07;;;;;;;7.57;78.02;99775.19;6250643;22;20023;-67
2022/10/18 04:34:52;;;;;;;12.98;8.25;;;;;;;7.56;78.39;99786.72;6248880;22;20007;-69
2022/10/18 04:37:17;;;;;;;18.15;8.23;;;;;;;7.57;78.18;99780.47;6245466;22;20045;-70
2022/10/18 04:39:45;;;;;;;12.10;8.07;;;;;;;7.56;78.31;99773.47;6243569;22;20019;-70
2022/10/18 04:42:10;;;;;;;12.20;7.72;;;;;;;7.63;77.39;99769.53;6238783;22;20617;-68
2022/10/18 04:44:34;;;;;;;11.85;7.63;;;;;;;7.63;77.35;99764.22;6227687;22;20538;-68
2022/10/18 04:46:59;;;;;;;17.50;8.98;;;;;;;7.67;77.85;99762.28;6227731;22;20042;-68
2022/10/18 04:49:24;;;;;;;17.40;10.63;;;;;;;7.60;77.77;99758.25;6227469;22;20008;-69
2022/10/18 04:51:48;;;;;;;13.13;8.95;;;;;;;7.50;78.33;99760.56;6227991;22;20030;-68
2022/10/18 04:54:13;;;;;;;14.68;8.75;;;;;;;7.56;78.24;99754.06;6228548;22;20084;-68
2022/10/18 04:56:37;;;;;;;11.35;8.00;;;;;;;7.61;78.02;99759.94;6201938;22;20027;-68
2022/10/18 04:59:02;;;;;;;16.02;8.32;;;;;;;7.62;78.29;99751.06;6226854;22;20098;-68
2022/10/18 05:01:26;;;;;;;12.15;8.45;;;;;;;7.65;78.55;99746.44;6229024;22;20351;-67
2022/10/18 05:03:55;;;;;;;12.23;8.65;;;;;;;7.73;78.44;99740.66;6228082;22;20030;-68
2022/10/18 05:06:21;;;;;;;14.00;7.55;;;;;;;7.85;77.36;99747.06;6229125;22;20351;-68
2022/10/18 05:08:45;;;;;;;13.48;8.07;;;;;;;7.81;77.86;99740.22;6227887;22;20153;-76
2022/10/18 05:11:10;;;;;;;16.88;9.55;;;;;;;7.78;78.03;99748.38;6227760;22;20043;-68
2022/10/18 05:13:37;;;;;;;13.55;8.40;;;;;;;7.82;77.51;99757.84;6226817;22;20043;-70
2022/10/18 05:16:01;;;;;;;12.95;8.50;;;;;;;7.78;77.57;99745.72;6228906;22;20043;-77
2022/10/18 05:18:26;;;;;;;14.23;8.32;;;;;;;7.84;77.60;99756.81;6228249;22;20027;-68
2022/10/18 05:20:50;;;;;;;19.65;8.10;;;;;;;7.89;77.78;99767.19;6228678;22;20016;-69
2022/10/18 05:23:15;;;;;;;14.52;8.32;;;;;;;7.88;77.90;99752.19;6226759;22;20016;-69
2022/10/18 05:25:41;;;;;;;15.90;10.02;;;;;;;7.88;77.22;99766.31;6200734;22;20058;-69
2022/10/18 05:28:06;;;;;;;12.70;8.48;;;;;;;7.88;77.35;99765.47;6228757;22;20065;-68
2022/10/18 05:30:30;;;;;;;14.38;8.82;;;;;;;7.89;77.30;99761.88;6228411;22;20015;-69
2022/10/18 05:32:55;;;;;;;15.35;8.80;;;;;;;7.89;77.67;99745.94;6228468;22;20019;-67
2022/10/18 05:35:20;;;;;;;14.88;9.35;;;;;;;7.95;77.85;99758.84;6228549;22;20776;-70
2022/10/18 05:37:44;;;;;;;14.68;8.48;;;;;;;7.95;77.21;99750.88;6228489;22;20091;-68
2022/10/18 05:40:09;;;;;;;14.85;9.52;;;;;;;7.93;77.72;99756.28;6228150;22;20401;-68
2022/10/18 05:42:34;;;;;;;17.63;8.98;;;;;;;7.92;77.76;99764.31;6226733;22;20367;-67
2022/10/18 05:44:58;;;;;;;12.73;8.90;;;;;;;7.93;78.22;99756.28;6228609;22;20426;-67
2022/10/18 05:47:23;;;;;;;17.05;9.13;;;;;;;7.99;78.17;99752.41;6228484;22;20015;-69
2022/10/18 05:49:47;;;;;;;14.40;9.30;;;;;;;8.07;77.41;99744.00;6228496;22;20134;-77
2022/10/18 05:52:12;;;;;;;19.50;9.60;;;;;;;8.07;77.20;99736.88;6228564;22;20145;-73
2022/10/18 05:54:37;;;;;;;21.67;10.95;;;;;;;8.11;76.83;99729.59;6228407;22;20462;-75
2022/10/18 05:57:01;;;;;;;14.25;8.68;;;;;;;8.05;77.25;99729.94;6176667;22;20030;-73
2022/10/18 05:59:26;;;;;;;16.73;9.43;;;;;;;8.02;77.17;99723.88;6229428;22;20019;-73
2022/10/18 06:01:50;;;;;;;13.48;8.32;;;;;;;7.95;77.31;99722.53;6229331;22;20027;-75
2022/10/18 06:04:16;;;;;;;14.98;9.18;;;;;;;7.98;77.52;99725.03;6228416;22;20098;-73
2022/10/18 06:06:41;;;;;;;16.20;9.07;;;;;;;7.94;78.16;99704.91;6230472;22;20352;-74
2022/10/18 06:09:06;;;;;;;21.63;9.95;;;;;;;7.99;77.84;99712.59;6236553;22;20057;-74
2022/10/18 06:11:31;;;;;;;19.95;10.55;;;;;;;8.02;77.84;99702.63;6240381;22;20012;-73
2022/10/18 06:13:58;;;;;;;19.45;10.98;;;;;;;7.99;77.71;99696.66;6229068;22;20015;-74
2022/10/18 06:16:24;;;;;;;16.95;7.82;;;;;;;8.06;77.98;99694.50;6230362;22;20018;-73
2022/10/18 06:18:50;;;;;;;16.38;9.85;;;;;;;7.98;77.88;99701.13;6228626;22;20024;-74
2022/10/18 06:21:15;;;;;;;20.73;11.45;;;;;;;7.99;78.02;99691.38;6230083;22;20094;-74
2022/10/18 06:23:40;;;;;;;18.05;10.38;;;;;;;7.91;78.79;99685.63;6229097;22;20039;-74
2022/10/18 06:26:06;;;;;;;17.83;10.25;;;;;;;7.96;78.75;99679.13;6230819;22;20435;-73
2022/10/18 06:28:33;;;;;;;22.38;12.23;;;;;;;7.94;78.92;99677.50;6231519;22;20015;-75
2022/10/18 06:30:58;;;;;;;21.13;11.45;;;;;;;7.87;79.02;99677.03;6229903;22;20031;-73
2022/10/18 06:33:23;;;;;;;19.27;11.57;;;;;;;7.86;79.65;99667.34;6229885;22;20007;-72
2022/10/18 06:35:58;;;;;;;15.73;10.68;;;;;;;7.92;79.71;99651.03;6230375;22;20073;-73
2022/10/18 06:38:24;;;;;;;26.33;11.20;;;;;;;7.87;79.81;99639.88;6228503;22;20020;-72
2022/10/18 06:40:48;;;;;;;22.48;11.57;;;;;;;7.73;80.28;99610.66;6230206;22;20020;-72
2022/10/18 06:43:13;;;;;;;16.73;11.55;;;;;;;7.76;80.49;99591.03;6230760;22;20106;-72
2022/10/18 06:45:38;;;;;;;20.75;11.52;;;;;;;7.67;80.59;99573.03;6229744;22;20030;-71
2022/10/18 06:48:02;;;;;;;15.60;9.95;;;;;;;7.57;81.48;99539.06;6229933;22;20149;-72
2022/10/18 06:50:27;;;;;;;23.02;13.45;;;;;;;7.51;82.01;99552.72;6229959;22;20011;-72
2022/10/18 06:52:52;;;;;;;17.15;10.38;;;;;;;7.58;81.56;99554.03;6229887;22;20027;-72
2022/10/18 06:55:17;;;;;;;19.17;9.90;;;;;;;7.49;82.32;99562.56;6230104;22;20469;-73
2022/10/18 06:57:41;;;;;;;16.25;10.85;;;;;;;7.50;82.30;99561.63;6228301;22;20019;-68
2022/10/18 07:00:07;;;;;;;14.85;10.27;;;;;;;7.54;83.52;99549.88;6229604;22;20069;-69
2022/10/18 07:02:31;;;;;;;17.70;10.55;;;;;;;7.59;82.92;99534.53;6229887;22;20411;-68
2022/10/18 07:04:56;;;;;;;16.80;11.18;;;;;;;7.60;82.27;99512.38;6229902;22;20023;-68
2022/10/18 07:07:20;;;;;;;22.40;12.55;;;;;;;7.49;82.00;99509.50;6229471;22;20145;-69
2022/10/18 07:09:46;;;;;;;19.20;12.30;;;;;;;7.43;83.48;99517.84;6229472;22;20046;-69
2022/10/18 07:12:11;;;;;;;24.95;13.48;;;;;;;7.42;84.32;99479.00;6229359;22;20016;-70
2022/10/18 07:14:35;;;;;;;18.75;11.80;;;;;;;7.49;83.47;99464.41;6229246;22;20069;-69
2022/10/18 07:17:00;;;;;;;21.10;13.25;;;;;;;7.42;83.78;99473.72;6227553;22;20355;-70
2022/10/18 07:19:25;;;;;;;22.60;12.07;;;;;;;7.44;84.33;99478.94;6229365;22;20030;-71
2022/10/18 07:21:49;;;;;;;18.85;11.73;;;;;;;7.48;84.14;99453.91;6202634;22;20044;-71
2022/10/18 07:24:15;;;;;;;18.60;12.07;;;;;;;7.46;83.75;99429.25;6228183;22;20396;-71
2022/10/18 07:26:41;;;;;;;19.80;11.45;;;;;;;7.43;84.31;99418.88;6228671;22;20084;-69
2022/10/18 07:29:09;;;;;;;25.25;13.30;;;;;;;7.41;84.65;99423.41;6230243;22;20728;-70
2022/10/18 07:31:34;;;;;;;22.58;13.07;;;;;;;7.43;83.95;99398.50;6228156;22;20019;-70
2022/10/18 07:33:59;;;;;;;23.83;12.45;;;;;;;7.46;84.39;99393.00;6230207;22;20045;-71
2022/10/18 07:36:24;;;;;;;24.55;13.52;;;;;;;7.51;83.61;99384.75;6228261;22;20447;-70
2022/10/18 07:38:50;;;;;;;19.05;11.13;;;;;;;7.45;84.38;99366.59;6230477;22;20942;-70
2022/10/18 07:41:15;;;;;;;24.00;12.60;;;;;;;7.54;83.65;99348.28;6228204;22;20065;-70
2022/10/18 07:43:43;;;;;;;17.40;10.90;;;;;;;7.41;84.73;99352.66;6229618;22;20016;-70
2022/10/18 07:46:08;;;;;;;19.95;12.95;;;;;;;7.50;84.39;99333.50;6229320;22;20027;-69
2022/10/18 07:48:32;;;;;;;25.98;13.50;;;;;;;7.52;84.18;99320.16;6229800;22;20015;-73
2022/10/18 07:50:59;;;;;;;18.33;11.45;;;;;;;7.58;84.15;99315.28;6230009;22;20094;-73
2022/10/18 07:53:24;;;;;;;23.63;13.43;;;;;;;7.45;84.81;99293.16;6229655;22;20023;-73
2022/10/18 07:55:48;;;;;;;21.10;11.98;;;;;;;7.49;85.13;99288.50;6228001;22;20015;-72
2022/10/18 07:58:13;;;;;;;23.48;12.93;;;;;;;7.41;85.77;99286.34;6228790;22;20524;-73
2022/10/18 08:00:38;;;;;;;23.95;12.52;;;;;;;7.39;86.27;99279.44;6228612;22;20028;-74
2022/10/18 08:03:03;;;;;;;24.58;13.90;;;;;;;7.42;85.71;99258.91;6230985;22;20069;-73
2022/10/18 08:05:28;;;;;;;28.20;13.68;;;;;;;7.41;85.94;99238.63;6227992;22;20026;-74
2022/10/18 08:07:53;;;;;;;20.42;12.35;;;;;;;7.43;86.22;99235.88;6240109;22;20021;-74
2022/10/18 08:10:18;;;;;;;21.27;11.57;;;;;;;7.43;86.56;99219.97;6239512;22;20012;-73
2022/10/18 08:12:42;;;;;;;19.42;10.98;;;;;;;7.59;85.60;99199.41;6229682;22;20019;-75
2022/10/18 08:15:07;;;;;;;18.95;10.77;;;;;;;7.70;84.82;99174.81;6228072;22;20050;-74
2022/10/18 08:17:32;;;;;;;17.58;10.82;;;;;;;7.68;83.78;99185.53;6229504;22;20295;-75
2022/10/18 08:19:57;;;;;;;16.98;10.68;;;;;;;7.56;84.31;99176.59;6229317;22;20046;-74
2022/10/18 08:22:21;;;;;;;17.40;10.75;;;;;;;7.63;84.52;99174.41;6227717;22;20011;-69
2022/10/18 08:24:46;;;;;;;19.33;9.90;;;;;;;7.58;85.01;99150.81;6229434;22;20120;-68
2022/10/18 08:27:11;;;;;;;19.52;11.32;;;;;;;7.69;84.54;99098.84;6202139;22;20355;-67
2022/10/18 08:29:35;;;;;;;15.98;9.25;;;;;;;7.73;84.38;99097.69;6227528;22;20011;-68
2022/10/18 08:32:00;;;;;;;19.08;11.10;;;;;;;7.57;84.27;99076.66;6227425;22;20455;-70
2022/10/18 08:34:24;;;;;;;21.52;12.95;;;;;;;7.62;84.63;99040.06;6229221;22;20047;-69
2022/10/18 08:36:49;;;;;;;23.15;12.50;;;;;;;7.55;84.74;99033.50;6227416;22;20022;-68
2022/10/18 08:39:15;;;;;;;22.30;14.18;;;;;;;7.57;84.73;99002.38;6226055;22;20011;-69
2022/10/18 08:41:56;;;;;;;16.48;9.20;;;;;;;7.76;84.72;98980.75;6227615;22;20026;-68
2022/10/18 08:44:27;;;;;;;17.40;9.93;;;;;;;7.60;84.95;98970.34;6228797;22;20350;-68
2022/10/18 08:46:58;;;;;;;19.98;10.90;;;;;;;7.52;84.98;98940.88;6227567;22;20107;-67
2022/10/18 08:49:38;;;;;;;15.32;8.98;;;;;;;7.61;85.53;98930.44;6202384;22;20015;-73
2022/10/18 08:52:12;;;;;;;17.73;11.05;;;;;;;7.40;87.16;98931.97;6227569;22;20092;-73
2022/10/18 08:54:48;;;;;;;12.85;8.23;;;;;;;7.48;87.13;98934.91;6227763;22;20081;-75
2022/10/18 08:57:17;;;;;;;8.68;4.95;;;;;;;7.59;87.05;98916.44;6227360;22;20015;-74
2022/10/18 08:59:42;;;;;;;15.88;8.85;;;;;;;7.62;86.65;98913.56;6227258;22;20422;-72
2022/10/18 09:02:07;;;;;;;18.65;8.55;;;;;;;7.58;86.70;98951.88;6228060;22;20090;-73
2022/10/18 09:04:37;;;;;;;18.25;9.10;;;;;;;7.54;87.13;98968.13;6228648;22;20040;-72
2022/10/18 09:07:20;;;;;;;14.80;8.93;;;;;;;7.60;87.70;98968.53;6228506;22;20020;-74
2022/10/18 09:10:18;;;;;;;17.45;9.25;;;;;;;7.60;88.00;98971.19;6229082;22;20012;-73
2022/10/18 09:12:53;;;;;;;19.17;11.15;;;;;;;7.56;88.73;98952.97;6228403;22;20352;-71
2022/10/18 09:15:32;;;;;;;14.13;8.93;;;;;;;7.70;88.53;98930.75;6228931;22;20447;-73
2022/10/18 09:18:21;;;;;;;15.05;9.40;;;;;;;7.61;89.25;98932.25;6227540;22;20022;-75
2022/10/18 09:20:55;;;;;;;10.88;8.55;;;;;;;7.66;89.37;98943.41;6238841;22;20047;-76
2022/10/18 09:23:30;;;;;;;12.98;8.25;;;;;;;7.68;89.69;98938.81;6239706;22;20023;-69
2022/10/18 09:26:14;;;;;;;14.13;8.43;;;;;;;7.79;89.61;98919.50;6226941;22;20419;-70
2022/10/18 09:28:49;;;;;;;11.50;7.90;;;;;;;7.80;89.47;98911.41;6228484;22;20019;-69
2022/10/18 09:31:25;;;;;;;12.00;7.70;;;;;;;7.89;89.59;98901.97;6228411;22;20019;-69
2022/10/18 09:33:57;;;;;;;10.63;7.00;;;;;;;7.94;89.29;98887.38;6229166;22;20440;-70
2022/10/18 09:36:25;;;;;;;13.98;7.57;;;;;;;7.99;88.97;98879.09;6239008;22;20087;-69
2022/10/18 09:38:58;;;;;;;10.55;7.75;;;;;;;7.99;89.26;98873.78;6202892;22;20015;-70
2022/10/18 09:41:41;;;;;;;10.40;7.40;;;;;;;8.07;89.56;98892.66;6228947;22;20027;-69
2022/10/18 09:44:23;;;;;;;10.15;7.32;;;;;;;8.14;89.61;98896.53;6228600;22;20022;-70
2022/10/18 09:47:17;;;;;;;12.55;8.60;;;;;;;8.20;89.66;98880.16;6230671;22;20024;-70
2022/10/18 09:50:07;;;;;;;21.23;7.97;;;;;;;8.21;89.28;98873.91;6218611;22;20093;-66
2022/10/18 09:52:40;;;;;;;12.02;7.20;;;;;;;8.25;89.90;98866.53;6201685;22;20046;-70
2022/10/18 09:55:18;;;;;;;12.70;8.45;;;;;;;8.28;89.88;98853.88;6228909;22;20064;-70
2022/10/18 09:57:54;;;;;;;12.38;6.95;;;;;;;8.36;89.72;98856.00;6230505;22;20098;-71
2022/10/18 10:00:28;;;;;;;10.45;6.53;;;;;;;8.48;89.69;98856.88;6230426;22;20451;-70
2022/10/18 10:02:53;;;;;;;10.98;7.95;;;;;;;8.44;90.49;98845.66;6229609;22;20810;-72
2022/10/18 10:05:18;;;;;;;11.25;6.97;;;;;;;8.52;90.60;98853.03;6234911;22;20459;-78
2022/10/18 10:07:46;;;;;;;8.35;6.75;;;;;;;8.62;90.80;98836.28;6248287;22;20040;-76
2022/10/18 10:10:26;;;;;;;10.75;7.85;;;;;;;8.77;90.93;98833.44;6244085;22;20455;-77
2022/10/18 10:13:15;;;;;;;11.20;7.18;;;;;;;8.88;91.22;98820.16;6233050;22;20015;-74
2022/10/18 10:15:45;;;;;;;18.25;7.88;;;;;;;8.94;91.14;98824.97;6231420;22;20051;-72
2022/10/18 10:18:22;;;;;;;10.13;7.43;;;;;;;9.06;91.18;98816.06;6230779;22;20027;-73
2022/10/18 10:20:52;;;;;;;11.65;7.32;;;;;;;9.16;91.34;98808.19;6230915;22;20020;-74
2022/10/18 10:23:29;;;;;;;12.40;8.88;;;;;;;9.26;91.47;98809.16;6203747;22;20019;-72
2022/10/18 10:26:01;;;;;;;11.98;8.52;;;;;;;9.35;91.85;98800.47;6229952;22;20019;-70
2022/10/18 10:28:30;;;;;;;10.35;8.23;;;;;;;9.42;91.53;98806.97;6228431;22;20706;-69
2022/10/18 10:31:23;;;;;;;11.20;9.05;;;;;;;9.54;91.63;98806.00;6228375;22;20455;-72
2022/10/18 10:34:18;;;;;;;14.32;9.82;;;;;;;9.64;91.96;98803.44;6203259;22;20019;-69
2022/10/18 10:36:47;;;;;;;17.52;11.40;;;;;;;9.71;91.91;98793.97;6230239;22;20020;-71
2022/10/18 10:39:18;;;;;;;12.55;9.75;;;;;;;9.81;91.95;98801.09;6228676;22;20011;-69
2022/10/18 10:41:45;;;;;;;14.63;10.18;;;;;;;9.86;92.29;98794.53;6227405;22;20016;-69
2022/10/18 10:44:16;;;;;;;13.82;10.10;;;;;;;9.98;92.30;98793.53;6230657;22;20026;-69
2022/10/18 10:46:41;;;;;;;15.25;9.95;;;;;;;10.02;91.97;98797.66;6230010;22;20019;-69
2022/10/18 10:49:20;;;;;;;14.55;10.18;;;;;;;10.09;92.22;98797.00;6229063;22;20355;-68
2022/10/18 10:51:52;;;;;;;13.68;10.80;;;;;;;10.17;92.25;98785.69;6203433;22;20041;-68
2022/10/18 10:54:20;;;;;;;14.40;10.88;;;;;;;10.18;92.37;98774.97;6177493;22;20102;-70
2022/10/18 10:57:11;;;;;;;14.02;10.05;;;;;;;10.32;91.83;98771.16;6228365;22;20089;-70
2022/10/18 10:59:43;;;;;;;17.30;10.98;;;;;;;10.37;92.51;98787.59;6228384;22;20030;-74
2022/10/18 11:02:16;;;;;;;17.55;13.15;;;;;;;10.42;92.00;98771.19;6203018;22;20419;-74
2022/10/18 11:04:41;;;;;;;20.27;14.27;;;;;;;10.47;92.37;98766.34;6230642;22;20023;-72
2022/10/18 11:07:25;;;;;;;17.75;12.65;;;;;;;10.60;92.87;98760.81;6228721;22;20015;-73
2022/10/18 11:09:49;;;;;;;16.67;11.25;;;;;;;10.65;92.41;98747.94;6230030;22;20015;-73
2022/10/18 11:12:24;;;;;;;17.60;12.43;;;;;;;10.78;92.62;98746.75;6228039;22;20081;-73
2022/10/18 11:15:09;;;;;;;16.63;12.68;;;;;;;10.82;92.26;98750.84;6229309;22;20098;-73
2022/10/18 11:18:13;;;;;;;12.63;9.98;;;;;;;10.88;92.03;98760.13;6205602;22;20474;-69
2022/10/18 11:20:42;;;;;;;15.95;11.57;;;;;;;10.91;92.95;98760.72;6227725;22;20023;-71
2022/10/18 11:23:10;;;;;;;19.23;13.55;;;;;;;10.90;92.14;98772.34;6202731;22;20102;-69
2022/10/18 11:25:44;;;;;;;14.82;11.85;;;;;;;10.99;92.63;98769.84;6227925;22;20019;-73
2022/10/18 11:28:32;;;;;;;15.73;10.70;;;;;;;11.01;92.30;98766.06;6202554;22;20020;-70
2022/10/18 11:31:04;;;;;;;17.42;10.90;;;;;;;10.99;91.87;98767.19;6228011;22;20442;-71
2022/10/18 11:33:52;;;;;;;18.33;12.18;;;;;;;11.05;91.75;98764.84;6239594;22;20102;-71
2022/10/18 11:36:40;;;;;;;18.45;12.63;;;;;;;11.10;92.25;98759.94;6239541;22;20073;-72